Time;durP1;ratioP1;P1;durP2;ratioP2;P2;SDS_P1;SDS_P2;PMS_P1;PMS_P2;Temp;Humidity;BMP_temperature;BMP_pressure;BME280_temperature;BME280_humidity;BME280_pressure;Samples;Min_cycle;Max_cycle;Signal;HPM_P1;HPM_P2
2022/03/09 00:01:27;;;;;;;6.97;4.32;;;;;;;;;;4912618;29;20046;-68
2022/03/09 00:03:54;;;;;;;6.90;4.25;;;;;;;;;;4902565;29;20066;-68
2022/03/09 00:06:21;;;;;;;9.18;4.60;;;;;;;;;;4899861;29;20142;-68
2022/03/09 00:08:49;;;;;;;9.07;4.88;;;;;;;;;;4896468;29;20642;-68
2022/03/09 00:11:17;;;;;;;7.97;4.57;;;;;;;;;;4914407;29;20151;-68
2022/03/09 00:13:44;;;;;;;9.20;5.18;;;;;;;;;;4915887;29;20059;-68
2022/03/09 00:16:12;;;;;;;6.80;4.68;;;;;;;;;;4913934;29;20051;-68
2022/03/09 00:18:39;;;;;;;8.23;4.75;;;;;;;;;;4917406;29;20570;-68
2022/03/09 00:21:06;;;;;;;6.72;4.70;;;;;;;;;;4898283;29;20056;-68
2022/03/09 00:23:34;;;;;;;8.68;4.43;;;;;;;;;;4897934;29;20120;-68
2022/03/09 00:26:01;;;;;;;10.23;4.80;;;;;;;;;;4898594;29;20067;-68
2022/03/09 00:28:29;;;;;;;7.68;4.70;;;;;;;;;;4915301;29;20062;-68
2022/03/09 00:30:57;;;;;;;9.10;5.32;;;;;;;;;;4917120;29;20716;-68
2022/03/09 00:33:24;;;;;;;8.75;4.80;;;;;;;;;;4896446;29;20052;-68
2022/03/09 00:35:52;;;;;;;7.25;4.63;;;;;;;;;;4897758;29;20052;-68
2022/03/09 00:38:19;;;;;;;10.85;4.82;;;;;;;;;;4914272;29;20518;-68
2022/03/09 00:40:48;;;;;;;9.82;4.90;;;;;;;;;;4910782;29;20055;-68
2022/03/09 00:43:16;;;;;;;10.32;5.03;;;;;;;;;;4913979;29;20127;-68
2022/03/09 00:45:44;;;;;;;7.05;4.95;;;;;;;;;;4898009;29;20056;-68
2022/03/09 00:48:12;;;;;;;8.30;5.05;;;;;;;;;;4894457;29;20419;-68
2022/03/09 00:50:39;;;;;;;6.93;4.85;;;;;;;;;;4893978;29;20507;-68
2022/03/09 00:53:06;;;;;;;11.73;5.30;;;;;;;;;;4915568;29;20388;-68
2022/03/09 00:55:33;;;;;;;11.82;6.55;;;;;;;;;;4915684;29;20047;-68
2022/03/09 00:58:00;;;;;;;10.40;5.32;;;;;;;;;;4900473;29;20067;-68
2022/03/09 01:00:28;;;;;;;11.15;5.57;;;;;;;;;;4903341;29;20056;-68
2022/03/09 01:02:56;;;;;;;8.50;5.70;;;;;;;;;;4919131;29;20410;-68
2022/03/09 01:05:24;;;;;;;9.40;5.65;;;;;;;;;;4900825;29;20115;-69
2022/03/09 01:07:51;;;;;;;13.40;6.00;;;;;;;;;;4916839;29;20046;-69
2022/03/09 01:10:18;;;;;;;10.43;5.65;;;;;;;;;;4898174;29;20482;-68
2022/03/09 01:12:46;;;;;;;9.15;5.30;;;;;;;;;;4898160;29;20684;-68
2022/03/09 01:15:13;;;;;;;10.70;5.55;;;;;;;;;;4919553;29;20582;-68
2022/03/09 01:17:41;;;;;;;9.43;5.40;;;;;;;;;;4918802;29;20549;-68
2022/03/09 01:20:10;;;;;;;11.95;6.18;;;;;;;;;;4897502;29;20067;-68
2022/03/09 01:22:38;;;;;;;10.18;5.78;;;;;;;;;;4917959;29;20056;-68
2022/03/09 01:25:05;;;;;;;11.88;5.97;;;;;;;;;;4917471;29;20129;-68
2022/03/09 01:27:33;;;;;;;8.88;6.07;;;;;;;;;;4898795;29;20852;-68
2022/03/09 01:30:00;;;;;;;10.27;6.03;;;;;;;;;;4901656;29;20060;-68
2022/03/09 01:32:27;;;;;;;9.27;5.75;;;;;;;;;;4900682;29;20965;-68
2022/03/09 01:34:54;;;;;;;10.57;6.43;;;;;;;;;;4916977;29;20056;-68
2022/03/09 01:37:23;;;;;;;9.35;5.68;;;;;;;;;;4914841;29;20075;-67
2022/03/09 01:39:51;;;;;;;11.23;6.10;;;;;;;;;;4916244;29;20059;-67
2022/03/09 01:42:18;;;;;;;10.65;5.63;;;;;;;;;;4916910;29;20498;-67
2022/03/09 01:44:45;;;;;;;12.63;6.57;;;;;;;;;;4915111;29;20063;-68
2022/03/09 01:47:12;;;;;;;10.38;6.47;;;;;;;;;;4901020;29;20056;-68
2022/03/09 01:49:40;;;;;;;10.02;6.13;;;;;;;;;;4917114;29;20056;-68
2022/03/09 01:52:08;;;;;;;12.07;6.22;;;;;;;;;;4899702;29;20570;-68
2022/03/09 01:54:39;;;;;;;13.32;6.40;;;;;;;;;;4917094;29;21529;-68
2022/03/09 01:57:07;;;;;;;11.10;6.18;;;;;;;;;;4916006;29;20044;-68
2022/03/09 01:59:34;;;;;;;15.18;6.82;;;;;;;;;;4920613;29;20052;-68
2022/03/09 02:02:01;;;;;;;11.73;7.00;;;;;;;;;;4915892;29;20384;-68
2022/03/09 02:04:28;;;;;;;14.02;6.65;;;;;;;;;;4900099;29;20047;-68
2022/03/09 02:06:56;;;;;;;10.02;6.30;;;;;;;;;;4915644;29;20114;-68
2022/03/09 02:12:11;;;;;;;10.95;6.32;;;;;;;;;;4919981;29;20051;-68
2022/03/09 02:14:39;;;;;;;10.30;6.05;;;;;;;;;;4898984;29;20156;-68
2022/03/09 02:17:07;;;;;;;10.35;6.50;;;;;;;;;;4919559;29;20794;-68
2022/03/09 02:19:34;;;;;;;17.15;7.28;;;;;;;;;;4899346;29;20570;-68
2022/03/09 02:22:05;;;;;;;11.10;6.15;;;;;;;;;;4900635;29;20052;-68
2022/03/09 02:24:34;;;;;;;14.48;6.95;;;;;;;;;;4915415;29;20450;-68
2022/03/09 02:27:04;;;;;;;12.45;6.50;;;;;;;;;;4896912;29;20092;-68
2022/03/09 02:29:31;;;;;;;10.43;6.35;;;;;;;;;;4899940;29;21230;-68
2022/03/09 02:32:00;;;;;;;10.38;6.47;;;;;;;;;;4895546;29;20057;-68
2022/03/09 02:34:27;;;;;;;11.10;6.88;;;;;;;;;;4913175;29;20048;-68
2022/03/09 02:36:54;;;;;;;13.20;7.70;;;;;;;;;;4919990;29;20125;-68
2022/03/09 02:39:21;;;;;;;12.88;7.60;;;;;;;;;;4897717;29;20889;-68
2022/03/09 02:41:50;;;;;;;14.80;7.68;;;;;;;;;;4917684;29;20063;-69
2022/03/09 02:44:17;;;;;;;14.25;7.63;;;;;;;;;;4915019;29;20142;-68
2022/03/09 02:46:45;;;;;;;10.32;7.43;;;;;;;;;;4896484;29;20059;-68
2022/03/09 02:49:12;;;;;;;11.07;6.88;;;;;;;;;;4916420;29;20082;-68
2022/03/09 02:51:39;;;;;;;11.35;6.82;;;;;;;;;;4916330;29;20075;-68
2022/03/09 02:54:06;;;;;;;13.35;7.70;;;;;;;;;;4898734;29;20112;-68
2022/03/09 02:56:34;;;;;;;10.82;7.00;;;;;;;;;;4900373;29;20156;-68
2022/03/09 02:59:02;;;;;;;10.63;7.15;;;;;;;;;;4919059;29;20079;-68
2022/03/09 03:01:29;;;;;;;15.77;7.93;;;;;;;;;;4915477;29;20056;-68
2022/03/09 03:03:57;;;;;;;11.55;6.93;;;;;;;;;;4911072;29;20052;-68
2022/03/09 03:06:24;;;;;;;11.50;7.30;;;;;;;;;;4915975;29;20043;-68
2022/03/09 03:08:51;;;;;;;12.07;7.97;;;;;;;;;;4902680;29;20058;-68
2022/03/09 03:11:19;;;;;;;12.02;7.07;;;;;;;;;;4917989;29;20157;-68
2022/03/09 03:13:49;;;;;;;13.40;7.55;;;;;;;;;;4915172;29;20063;-68
2022/03/09 03:16:17;;;;;;;13.98;7.47;;;;;;;;;;4912643;29;20056;-68
2022/03/09 03:18:45;;;;;;;15.00;7.70;;;;;;;;;;4906971;29;20066;-68
2022/03/09 03:21:12;;;;;;;12.68;8.07;;;;;;;;;;4907953;29;20751;-68
2022/03/09 03:23:40;;;;;;;13.57;7.55;;;;;;;;;;4891841;29;20149;-68
2022/03/09 03:26:07;;;;;;;13.73;7.78;;;;;;;;;;4914871;29;20043;-68
2022/03/09 03:28:35;;;;;;;11.98;7.32;;;;;;;;;;4894901;29;20598;-68
2022/03/09 03:31:02;;;;;;;11.57;7.85;;;;;;;;;;4913634;29;20559;-69
2022/03/09 03:33:31;;;;;;;12.23;7.53;;;;;;;;;;4914682;29;20415;-68
2022/03/09 03:35:58;;;;;;;11.63;7.65;;;;;;;;;;4896437;29;21414;-68
2022/03/09 03:38:26;;;;;;;12.23;7.90;;;;;;;;;;4917353;29;20056;-68
2022/03/09 03:40:53;;;;;;;12.63;8.18;;;;;;;;;;4913507;29;20056;-68
2022/03/09 03:43:20;;;;;;;12.00;8.10;;;;;;;;;;4897239;29;20052;-68
2022/03/09 03:45:48;;;;;;;11.90;7.45;;;;;;;;;;4914986;29;20071;-68
2022/03/09 03:48:15;;;;;;;12.13;7.43;;;;;;;;;;4914881;29;20450;-68
2022/03/09 03:50:43;;;;;;;13.27;8.07;;;;;;;;;;4911409;29;20063;-68
2022/03/09 03:53:11;;;;;;;12.23;7.82;;;;;;;;;;4894407;29;20048;-68
2022/03/09 03:55:38;;;;;;;15.30;8.10;;;;;;;;;;4900963;29;20108;-68
2022/03/09 03:58:05;;;;;;;12.75;7.10;;;;;;;;;;4913015;29;20631;-68
2022/03/09 04:00:35;;;;;;;11.85;8.20;;;;;;;;;;4894634;29;20064;-68
2022/03/09 04:03:02;;;;;;;13.93;7.95;;;;;;;;;;4898569;29;20048;-68
2022/03/09 04:05:30;;;;;;;13.05;8.43;;;;;;;;;;4896798;29;20486;-68
2022/03/09 04:07:58;;;;;;;15.20;8.20;;;;;;;;;;4899690;29;20055;-68
2022/03/09 04:10:25;;;;;;;19.25;8.60;;;;;;;;;;4893868;29;20140;-68
2022/03/09 04:12:53;;;;;;;15.27;8.30;;;;;;;;;;4913001;29;20055;-68
2022/03/09 04:15:20;;;;;;;14.60;8.00;;;;;;;;;;4898860;29;20055;-68
2022/03/09 04:17:48;;;;;;;14.07;8.18;;;;;;;;;;4895616;29;20162;-68
2022/03/09 04:20:16;;;;;;;14.20;8.00;;;;;;;;;;4894870;29;20060;-68
2022/03/09 04:22:44;;;;;;;16.30;8.70;;;;;;;;;;4901757;29;20060;-68
2022/03/09 04:25:13;;;;;;;14.98;8.52;;;;;;;;;;4896219;29;20536;-67
2022/03/09 04:27:40;;;;;;;15.00;8.73;;;;;;;;;;4899200;29;20056;-68
2022/03/09 04:30:08;;;;;;;15.15;8.50;;;;;;;;;;4912359;29;20056;-68
2022/03/09 04:32:36;;;;;;;13.43;8.57;;;;;;;;;;4917382;29;20059;-68
2022/03/09 04:35:03;;;;;;;13.60;8.00;;;;;;;;;;4903578;29;20538;-67
2022/03/09 04:37:30;;;;;;;12.23;8.02;;;;;;;;;;4919668;29;20064;-68
2022/03/09 04:39:58;;;;;;;14.48;7.90;;;;;;;;;;4900489;29;20052;-68
2022/03/09 04:42:27;;;;;;;12.88;7.75;;;;;;;;;;4914362;29;20176;-67
2022/03/09 04:44:54;;;;;;;13.45;8.32;;;;;;;;;;4904873;29;20059;-68
2022/03/09 04:47:21;;;;;;;14.65;8.38;;;;;;;;;;4895051;29;20059;-68
2022/03/09 04:49:50;;;;;;;14.73;8.15;;;;;;;;;;4916617;29;20051;-68
2022/03/09 04:52:18;;;;;;;14.80;8.75;;;;;;;;;;4898526;29;20060;-68
2022/03/09 04:54:46;;;;;;;12.27;8.07;;;;;;;;;;4897624;29;20130;-68
2022/03/09 04:57:13;;;;;;;13.15;8.15;;;;;;;;;;4897849;29;20055;-69
2022/03/09 04:59:42;;;;;;;17.95;8.77;;;;;;;;;;4917865;29;20154;-68
2022/03/09 05:02:09;;;;;;;13.75;8.57;;;;;;;;;;4916170;29;20056;-68
2022/03/09 05:04:36;;;;;;;14.02;8.43;;;;;;;;;;4918777;29;20100;-68
2022/03/09 05:07:04;;;;;;;12.07;7.93;;;;;;;;;;4919357;29;20052;-68
2022/03/09 05:09:31;;;;;;;17.00;8.88;;;;;;;;;;4913558;29;20051;-68
2022/03/09 05:11:58;;;;;;;15.45;8.32;;;;;;;;;;4918617;29;20063;-68
2022/03/09 05:14:26;;;;;;;14.30;7.97;;;;;;;;;;4898995;29;20055;-68
2022/03/09 05:16:54;;;;;;;16.05;8.70;;;;;;;;;;4915348;29;20704;-68
2022/03/09 05:19:21;;;;;;;13.57;8.43;;;;;;;;;;4917106;29;20243;-68
2022/03/09 05:21:49;;;;;;;13.93;8.13;;;;;;;;;;4897021;29;20073;-68
2022/03/09 05:24:17;;;;;;;13.70;8.73;;;;;;;;;;4914089;29;20048;-68
2022/03/09 05:26:46;;;;;;;15.15;8.30;;;;;;;;;;4896851;29;20151;-68
2022/03/09 05:29:13;;;;;;;16.60;8.82;;;;;;;;;;4893583;29;20056;-68
2022/03/09 05:31:41;;;;;;;16.35;9.00;;;;;;;;;;4896505;29;20498;-68
2022/03/09 05:34:09;;;;;;;14.77;8.60;;;;;;;;;;4915534;29;20055;-68
2022/03/09 05:36:36;;;;;;;12.82;7.97;;;;;;;;;;4917233;29;20060;-68
2022/03/09 05:39:04;;;;;;;12.68;8.43;;;;;;;;;;4914629;29;20594;-68
2022/03/09 05:41:31;;;;;;;16.88;8.43;;;;;;;;;;4904824;29;20047;-68
2022/03/09 05:43:59;;;;;;;16.25;8.57;;;;;;;;;;4894224;29;20055;-68
2022/03/09 05:46:26;;;;;;;17.92;8.85;;;;;;;;;;4893624;29;20059;-68
2022/03/09 05:48:53;;;;;;;17.52;9.35;;;;;;;;;;4898548;29;20402;-68
2022/03/09 05:51:22;;;;;;;17.60;8.85;;;;;;;;;;4912792;29;20064;-68
2022/03/09 05:53:49;;;;;;;12.90;8.07;;;;;;;;;;4915110;29;20055;-68
2022/03/09 05:56:16;;;;;;;14.32;7.97;;;;;;;;;;4898662;29;20119;-68
2022/03/09 05:58:43;;;;;;;15.07;8.55;;;;;;;;;;4912661;29;20058;-68
2022/03/09 06:01:11;;;;;;;16.33;8.38;;;;;;;;;;4892365;29;20064;-68
2022/03/09 06:03:38;;;;;;;13.30;8.02;;;;;;;;;;4898024;29;20555;-68
2022/03/09 06:06:05;;;;;;;16.15;7.97;;;;;;;;;;4894202;29;20063;-68
2022/03/09 06:08:34;;;;;;;14.40;8.15;;;;;;;;;;4894040;29;20075;-68
2022/03/09 06:11:01;;;;;;;16.08;8.90;;;;;;;;;;4897012;29;20047;-67
2022/03/09 06:13:28;;;;;;;17.80;7.90;;;;;;;;;;4893259;29;20082;-67
2022/03/09 06:15:55;;;;;;;15.10;8.55;;;;;;;;;;4920181;29;20055;-67
2022/03/09 06:18:23;;;;;;;15.40;7.97;;;;;;;;;;4920483;29;20056;-68
2022/03/09 06:20:50;;;;;;;16.67;8.02;;;;;;;;;;4921702;29;20051;-68
2022/03/09 06:23:18;;;;;;;12.73;7.85;;;;;;;;;;4921286;29;20044;-68
2022/03/09 06:25:47;;;;;;;13.57;7.90;;;;;;;;;;4905752;29;20102;-68
2022/03/09 06:28:14;;;;;;;14.82;8.70;;;;;;;;;;4913462;29;20085;-68
2022/03/09 06:30:41;;;;;;;17.90;8.95;;;;;;;;;;4901078;29;20139;-68
2022/03/09 06:33:10;;;;;;;15.80;8.20;;;;;;;;;;4902723;29;20051;-68
2022/03/09 06:35:37;;;;;;;14.48;8.15;;;;;;;;;;4902092;29;20078;-68
2022/03/09 06:38:04;;;;;;;12.65;8.02;;;;;;;;;;4901446;29;20128;-68
2022/03/09 06:40:31;;;;;;;16.42;8.05;;;;;;;;;;4919591;29;20494;-69
2022/03/09 06:43:00;;;;;;;15.02;8.70;;;;;;;;;;4899731;29;20498;-68
2022/03/09 06:45:27;;;;;;;12.98;7.53;;;;;;;;;;4924831;29;20048;-68
2022/03/09 06:47:55;;;;;;;13.93;8.25;;;;;;;;;;4903614;29;20055;-68
2022/03/09 06:50:22;;;;;;;12.48;8.00;;;;;;;;;;4903884;29;20059;-68
2022/03/09 06:52:49;;;;;;;14.68;8.48;;;;;;;;;;4921419;29;20116;-68
2022/03/09 06:55:16;;;;;;;13.70;8.43;;;;;;;;;;4918971;29;20079;-68
2022/03/09 06:57:43;;;;;;;16.75;8.35;;;;;;;;;;4902801;29;20063;-68
2022/03/09 07:00:14;;;;;;;13.40;8.15;;;;;;;;;;4918542;29;20062;-68
2022/03/09 07:02:41;;;;;;;15.45;7.90;;;;;;;;;;4901905;29;20056;-68
2022/03/09 07:05:09;;;;;;;15.35;8.48;;;;;;;;;;4903247;29;20048;-68
2022/03/09 07:07:36;;;;;;;13.35;7.75;;;;;;;;;;4899628;29;20116;-69
2022/03/09 07:10:04;;;;;;;13.45;8.23;;;;;;;;;;4900477;29;20071;-68
2022/03/09 07:12:31;;;;;;;13.68;8.40;;;;;;;;;;4920729;29;20107;-68
2022/03/09 07:14:58;;;;;;;13.85;7.90;;;;;;;;;;4923594;29;20047;-69
2022/03/09 07:17:27;;;;;;;13.90;7.72;;;;;;;;;;4898756;29;20062;-68
2022/03/09 07:19:54;;;;;;;21.73;8.48;;;;;;;;;;4901776;29;20569;-68
2022/03/09 07:22:22;;;;;;;14.63;8.43;;;;;;;;;;4919413;29;20059;-68
2022/03/09 07:24:49;;;;;;;12.85;8.18;;;;;;;;;;4916008;29;20039;-68
2022/03/09 07:27:16;;;;;;;15.25;8.00;;;;;;;;;;4898931;29;20140;-68
2022/03/09 07:29:44;;;;;;;20.42;9.13;;;;;;;;;;4915189;29;20060;-68
2022/03/09 07:32:14;;;;;;;15.80;8.30;;;;;;;;;;4896961;29;20142;-68
2022/03/09 07:34:42;;;;;;;14.45;8.10;;;;;;;;;;4917124;29;20462;-68
2022/03/09 07:37:10;;;;;;;12.35;7.50;;;;;;;;;;4899541;29;20136;-68
2022/03/09 07:39:37;;;;;;;13.48;7.53;;;;;;;;;;4918811;29;20052;-68
2022/03/09 07:42:05;;;;;;;13.23;8.13;;;;;;;;;;4914783;29;20052;-68
2022/03/09 07:44:32;;;;;;;13.52;7.38;;;;;;;;;;4903082;29;20055;-68
2022/03/09 07:46:59;;;;;;;17.92;9.02;;;;;;;;;;4898330;29;20383;-68
2022/03/09 07:49:27;;;;;;;14.00;7.55;;;;;;;;;;4913978;29;20059;-68
2022/03/09 07:51:55;;;;;;;13.73;7.30;;;;;;;;;;4897742;29;20056;-69
2022/03/09 07:54:23;;;;;;;18.55;8.07;;;;;;;;;;4917176;29;20123;-68
2022/03/09 07:56:50;;;;;;;12.85;6.97;;;;;;;;;;4896850;29;20066;-68
2022/03/09 07:59:17;;;;;;;11.18;6.78;;;;;;;;;;4897072;29;20060;-69
2022/03/09 08:01:44;;;;;;;13.90;7.28;;;;;;;;;;4917535;29;20507;-68
2022/03/09 08:04:12;;;;;;;12.13;7.30;;;;;;;;;;4917596;29;20327;-68
2022/03/09 08:06:40;;;;;;;11.70;7.50;;;;;;;;;;4916511;29;20052;-68
2022/03/09 08:09:09;;;;;;;12.80;6.90;;;;;;;;;;4898722;29;20104;-69
2022/03/09 08:11:36;;;;;;;16.65;7.85;;;;;;;;;;4907393;29;20139;-69
2022/03/09 08:14:04;;;;;;;19.13;7.00;;;;;;;;;;4918641;29;20767;-69
2022/03/09 08:16:31;;;;;;;14.85;7.35;;;;;;;;;;4920991;29;20055;-68
2022/03/09 08:18:58;;;;;;;13.55;6.95;;;;;;;;;;4920464;29;20775;-68
2022/03/09 08:21:25;;;;;;;15.73;7.28;;;;;;;;;;4898327;29;20064;-69
2022/03/09 08:23:52;;;;;;;13.32;7.07;;;;;;;;;;4901228;29;20544;-68
2022/03/09 08:26:21;;;;;;;12.13;7.25;;;;;;;;;;4917692;29;20047;-68
2022/03/09 08:28:48;;;;;;;13.15;7.13;;;;;;;;;;4899674;29;20091;-68
2022/03/09 08:31:16;;;;;;;12.27;6.25;;;;;;;;;;4899883;29;20067;-68
2022/03/09 08:33:43;;;;;;;12.43;7.30;;;;;;;;;;4899172;29;20143;-68
2022/03/09 08:36:11;;;;;;;14.90;6.97;;;;;;;;;;4917653;29;20056;-68
2022/03/09 08:38:39;;;;;;;11.40;7.40;;;;;;;;;;4902786;29;20191;-68
2022/03/09 08:41:06;;;;;;;16.02;7.13;;;;;;;;;;4919756;29;20063;-68
2022/03/09 08:43:34;;;;;;;11.40;7.13;;;;;;;;;;4901567;29;20572;-68
2022/03/09 08:46:02;;;;;;;12.48;7.07;;;;;;;;;;4921999;29;20047;-68
2022/03/09 08:48:29;;;;;;;11.52;6.72;;;;;;;;;;4920923;29;20075;-68
2022/03/09 08:50:56;;;;;;;10.63;6.55;;;;;;;;;;4920963;29;20056;-69
2022/03/09 08:53:24;;;;;;;11.80;7.38;;;;;;;;;;4912103;29;20047;-69
2022/03/09 08:55:51;;;;;;;11.95;7.20;;;;;;;;;;4899519;29;20148;-68
2022/03/09 08:58:18;;;;;;;13.82;6.72;;;;;;;;;;4918546;29;20078;-68
2022/03/09 09:00:47;;;;;;;10.40;6.75;;;;;;;;;;4916413;29;20429;-69
2022/03/09 09:03:14;;;;;;;10.95;7.18;;;;;;;;;;4897472;29;20581;-68
2022/03/09 09:05:42;;;;;;;11.95;6.82;;;;;;;;;;4903605;29;20048;-69
2022/03/09 09:08:09;;;;;;;14.13;7.00;;;;;;;;;;4919385;29;20051;-69
2022/03/09 09:10:37;;;;;;;17.50;7.60;;;;;;;;;;4919908;29;20058;-68
2022/03/09 09:13:05;;;;;;;13.73;7.22;;;;;;;;;;4917920;29;20142;-68
2022/03/09 09:15:32;;;;;;;13.70;6.95;;;;;;;;;;4915961;29;20100;-69
2022/03/09 09:18:02;;;;;;;18.20;7.38;;;;;;;;;;4904908;29;20060;-69
2022/03/09 09:20:29;;;;;;;15.75;7.18;;;;;;;;;;4905282;29;20055;-68
2022/03/09 09:22:57;;;;;;;10.52;6.40;;;;;;;;;;4908352;29;20066;-69
2022/03/09 09:25:25;;;;;;;14.95;7.43;;;;;;;;;;4903998;29;20060;-68
2022/03/09 09:27:53;;;;;;;11.98;7.60;;;;;;;;;;4904496;29;20108;-68
2022/03/09 09:30:21;;;;;;;20.33;7.10;;;;;;;;;;4921936;29;20043;-69
2022/03/09 09:32:49;;;;;;;11.63;7.22;;;;;;;;;;4921441;29;20055;-68
2022/03/09 09:35:18;;;;;;;15.93;7.35;;;;;;;;;;4921089;29;20517;-68
2022/03/09 09:37:46;;;;;;;12.30;6.95;;;;;;;;;;4918535;29;20124;-68
2022/03/09 09:40:14;;;;;;;11.68;7.15;;;;;;;;;;4922293;29;20487;-68
2022/03/09 09:42:42;;;;;;;12.88;6.57;;;;;;;;;;4925138;29;20062;-68
2022/03/09 09:45:10;;;;;;;11.38;6.65;;;;;;;;;;4920226;29;20040;-68
2022/03/09 09:47:38;;;;;;;12.68;6.80;;;;;;;;;;4922654;29;20052;-68
2022/03/09 09:50:07;;;;;;;13.15;7.57;;;;;;;;;;4921146;29;20048;-68
2022/03/09 09:52:36;;;;;;;12.50;7.00;;;;;;;;;;4910437;29;20154;-68
2022/03/09 09:55:07;;;;;;;11.50;7.05;;;;;;;;;;4923835;29;20123;-68
2022/03/09 09:57:35;;;;;;;11.35;6.75;;;;;;;;;;4926130;29;20086;-68
2022/03/09 10:00:04;;;;;;;10.70;7.45;;;;;;;;;;4921788;29;20059;-68
2022/03/09 10:02:31;;;;;;;14.13;6.85;;;;;;;;;;4905304;29;20062;-68
2022/03/09 10:04:59;;;;;;;12.25;7.13;;;;;;;;;;4923430;29;20051;-68
2022/03/09 10:07:27;;;;;;;11.27;6.60;;;;;;;;;;4921387;29;20487;-68
2022/03/09 10:09:55;;;;;;;12.65;6.82;;;;;;;;;;4920925;29;20202;-69
2022/03/09 10:12:27;;;;;;;11.07;6.53;;;;;;;;;;4907084;29;20084;-68
2022/03/09 10:14:55;;;;;;;10.95;6.32;;;;;;;;;;4920564;29;20063;-69
2022/03/09 10:17:22;;;;;;;12.57;7.13;;;;;;;;;;4920699;29;20285;-69
2022/03/09 10:19:50;;;;;;;12.65;6.80;;;;;;;;;;4906316;29;20360;-68
2022/03/09 10:22:22;;;;;;;12.52;6.47;;;;;;;;;;4903612;29;20085;-68
2022/03/09 10:24:50;;;;;;;10.30;6.80;;;;;;;;;;4905102;29;20055;-68
2022/03/09 10:30:11;;;;;;;10.10;6.75;;;;;;;;;;5049080;27;20472;-67
2022/03/09 10:32:49;;;;;;;14.27;7.50;;;;;;;;;;5034845;28;20053;-68
2022/03/09 10:35:17;;;;;;;13.48;7.72;;;;;;;;;;5041404;28;20049;-67
2022/03/09 10:37:46;;;;;;;13.23;6.90;;;;;;;;;;5048050;28;20060;-66
2022/03/09 10:40:14;;;;;;;13.00;6.82;;;;;;;;;;5046666;28;20064;-67
2022/03/09 10:42:42;;;;;;;10.80;6.57;;;;;;;;;;5047103;28;20049;-67
2022/03/09 10:45:11;;;;;;;13.43;7.80;;;;;;;;;;5047894;28;20908;-67
2022/03/09 10:47:40;;;;;;;12.02;6.82;;;;;;;;;;5049013;28;20064;-67
2022/03/09 10:50:12;;;;;;;10.95;6.53;;;;;;;;;;5050963;28;20099;-67
2022/03/09 10:52:43;;;;;;;14.65;7.15;;;;;;;;;;5051831;28;20058;-69
2022/03/09 10:55:37;;;;;;;10.70;6.85;;;;;;;;;;5049813;28;20049;-67
2022/03/09 10:58:09;;;;;;;12.98;6.97;;;;;;;;;;5012984;28;20902;-67
2022/03/09 11:00:38;;;;;;;14.07;7.35;;;;;;;;;;5049157;28;20057;-67
2022/03/09 11:03:07;;;;;;;10.25;7.20;;;;;;;;;;5049937;28;20053;-67
2022/03/09 11:05:34;;;;;;;10.05;7.38;;;;;;;;;;5045205;28;20060;-67
2022/03/09 11:08:02;;;;;;;11.20;6.60;;;;;;;;;;5053368;28;20060;-69
2022/03/09 11:10:30;;;;;;;12.80;7.30;;;;;;;;;;5049345;28;20129;-68
2022/03/09 11:12:57;;;;;;;14.27;7.20;;;;;;;;;;5052973;28;20547;-68
2022/03/09 11:15:24;;;;;;;14.88;7.15;;;;;;;;;;5053848;28;20474;-68
2022/03/09 11:17:54;;;;;;;11.45;7.32;;;;;;;;;;5053221;28;20049;-68
2022/03/09 11:20:21;;;;;;;9.98;6.85;;;;;;;;;;5049358;28;20084;-67
2022/03/09 11:22:49;;;;;;;14.65;7.40;;;;;;;;;;5052819;28;20467;-68
2022/03/09 11:25:16;;;;;;;12.35;7.60;;;;;;;;;;5046502;28;20041;-68
2022/03/09 11:27:45;;;;;;;12.05;7.40;;;;;;;;;;5047379;28;20053;-68
2022/03/09 11:30:22;;;;;;;13.10;7.10;;;;;;;;;;5053960;28;20219;-68
2022/03/09 11:32:50;;;;;;;12.65;7.40;;;;;;;;;;5051278;28;20049;-67
2022/03/09 11:35:40;;;;;;;11.30;7.45;;;;;;;;;;5051395;28;20124;-67
2022/03/09 11:38:23;;;;;;;11.18;7.80;;;;;;;;;;5053345;28;20059;-67
2022/03/09 11:41:14;;;;;;;13.15;6.90;;;;;;;;;;5018457;28;20053;-67
2022/03/09 11:43:42;;;;;;;12.65;7.25;;;;;;;;;;5032775;28;20154;-68
2022/03/09 11:46:09;;;;;;;13.13;7.68;;;;;;;;;;5034923;28;20108;-68
2022/03/09 11:48:53;;;;;;;12.80;7.78;;;;;;;;;;5034588;28;20041;-68
2022/03/09 11:51:22;;;;;;;13.05;7.55;;;;;;;;;;5034202;28;20130;-67
2022/03/09 11:53:51;;;;;;;12.32;7.43;;;;;;;;;;5035175;28;20115;-67
2022/03/09 11:56:25;;;;;;;15.40;7.60;;;;;;;;;;5035996;28;20081;-67
2022/03/09 11:59:08;;;;;;;10.30;7.60;;;;;;;;;;5039974;28;20057;-67
2022/03/09 12:02:02;;;;;;;13.05;7.97;;;;;;;;;;5034877;28;20052;-67
2022/03/09 12:04:49;;;;;;;10.55;7.95;;;;;;;;;;5033556;28;20111;-68
2022/03/09 12:07:42;;;;;;;16.80;8.50;;;;;;;;;;5035147;28;20080;-68
2022/03/09 12:10:10;;;;;;;10.25;7.32;;;;;;;;;;5037673;28;20064;-68
2022/03/09 12:12:38;;;;;;;13.52;8.23;;;;;;;;;;5033916;28;20055;-68
2022/03/09 12:15:06;;;;;;;12.00;8.35;;;;;;;;;;5038026;28;20045;-68
2022/03/09 12:17:35;;;;;;;13.38;8.23;;;;;;;;;;5036012;28;20063;-68
2022/03/09 12:20:18;;;;;;;12.88;8.73;;;;;;;;;;5037534;28;20068;-68
2022/03/09 12:23:07;;;;;;;13.27;8.15;;;;;;;;;;5034778;28;20174;-68
2022/03/09 12:25:38;;;;;;;14.30;8.23;;;;;;;;;;5034023;28;20048;-68
2022/03/09 12:28:23;;;;;;;12.57;7.95;;;;;;;;;;5037295;28;20061;-68
2022/03/09 12:30:52;;;;;;;12.68;8.57;;;;;;;;;;5028761;28;20045;-68
2022/03/09 12:33:23;;;;;;;13.40;8.55;;;;;;;;;;5031489;28;20615;-68
2022/03/09 12:35:50;;;;;;;15.90;9.35;;;;;;;;;;5030893;28;20057;-68
2022/03/09 12:38:19;;;;;;;11.68;8.57;;;;;;;;;;5028522;28;20049;-68
2022/03/09 12:40:47;;;;;;;10.90;8.65;;;;;;;;;;5029831;28;20696;-68
2022/03/09 12:43:14;;;;;;;12.82;9.57;;;;;;;;;;5031534;28;20080;-68
2022/03/09 12:45:51;;;;;;;14.05;9.02;;;;;;;;;;5030601;28;20142;-68
2022/03/09 12:48:19;;;;;;;13.32;9.18;;;;;;;;;;5029966;28;20050;-68
2022/03/09 12:50:47;;;;;;;14.80;8.95;;;;;;;;;;5030771;28;20046;-69
2022/03/09 12:53:19;;;;;;;13.63;9.35;;;;;;;;;;5033100;28;21601;-68
2022/03/09 12:55:48;;;;;;;12.87;9.70;;;;;;;;;;5036091;28;20045;-69
2022/03/09 12:58:22;;;;;;;12.63;9.43;;;;;;;;;;5041551;28;20110;-69
2022/03/09 13:00:49;;;;;;;14.68;8.93;;;;;;;;;;5030607;28;20492;-68
2022/03/09 13:03:17;;;;;;;13.68;9.10;;;;;;;;;;5030618;28;20056;-69
2022/03/09 13:05:44;;;;;;;13.20;9.45;;;;;;;;;;5037932;28;20117;-68
2022/03/09 13:08:14;;;;;;;11.68;9.25;;;;;;;;;;5034421;28;20053;-68
2022/03/09 13:10:43;;;;;;;13.18;9.82;;;;;;;;;;5039700;28;20057;-68
2022/03/09 13:13:11;;;;;;;16.55;9.93;;;;;;;;;;5033060;28;20060;-68
2022/03/09 13:15:40;;;;;;;15.65;10.30;;;;;;;;;;5035005;28;20041;-68
2022/03/09 13:18:07;;;;;;;14.45;10.38;;;;;;;;;;5034736;28;20090;-68
2022/03/09 13:20:37;;;;;;;13.35;10.35;;;;;;;;;;5037261;28;20075;-68
2022/03/09 13:23:04;;;;;;;13.00;9.73;;;;;;;;;;5030989;28;20103;-68
2022/03/09 13:25:32;;;;;;;23.48;14.23;;;;;;;;;;5032726;28;20057;-68
2022/03/09 13:28:02;;;;;;;18.23;11.77;;;;;;;;;;5033259;28;20143;-68
2022/03/09 13:30:31;;;;;;;19.67;12.38;;;;;;;;;;5035538;28;20837;-68
2022/03/09 13:33:10;;;;;;;15.20;11.55;;;;;;;;;;5034893;28;20409;-68
2022/03/09 13:35:47;;;;;;;20.52;11.70;;;;;;;;;;5029534;28;20124;-69
2022/03/09 13:38:21;;;;;;;14.52;10.80;;;;;;;;;;5030777;28;20412;-68
2022/03/09 13:40:49;;;;;;;20.73;12.52;;;;;;;;;;5030421;28;20136;-68
2022/03/09 13:43:16;;;;;;;14.13;11.00;;;;;;;;;;5032886;28;20049;-68
2022/03/09 13:45:44;;;;;;;14.05;11.35;;;;;;;;;;5031059;28;20061;-69
2022/03/09 13:48:20;;;;;;;15.73;12.05;;;;;;;;;;5032393;28;20049;-69
2022/03/09 13:50:59;;;;;;;16.10;12.55;;;;;;;;;;5035701;28;20045;-69
2022/03/09 13:53:31;;;;;;;15.70;11.95;;;;;;;;;;5032123;28;20077;-69
2022/03/09 13:55:59;;;;;;;20.10;11.80;;;;;;;;;;5038182;28;20135;-69
2022/03/09 13:58:27;;;;;;;20.10;13.15;;;;;;;;;;5032881;28;20743;-69
2022/03/09 14:01:05;;;;;;;20.98;13.38;;;;;;;;;;5035063;28;20056;-69
2022/03/09 14:03:40;;;;;;;18.75;13.13;;;;;;;;;;5034994;28;20040;-69
2022/03/09 14:06:14;;;;;;;19.25;13.18;;;;;;;;;;5035889;28;20056;-69
2022/03/09 14:08:41;;;;;;;15.68;13.00;;;;;;;;;;5035296;28;20400;-69
2022/03/09 14:11:13;;;;;;;16.25;13.00;;;;;;;;;;5038161;28;20057;-69
2022/03/09 14:13:56;;;;;;;16.90;12.00;;;;;;;;;;5031600;28;20150;-69
2022/03/09 14:16:25;;;;;;;18.05;12.57;;;;;;;;;;5035339;28;20171;-69
2022/03/09 14:18:52;;;;;;;17.90;12.25;;;;;;;;;;5034779;28;20049;-69
2022/03/09 14:21:19;;;;;;;16.48;12.73;;;;;;;;;;5035793;28;20680;-69
2022/03/09 14:23:48;;;;;;;19.20;12.93;;;;;;;;;;5032730;28;20527;-69
2022/03/09 14:26:15;;;;;;;20.58;13.15;;;;;;;;;;5036114;28;20140;-69
2022/03/09 14:28:45;;;;;;;18.13;12.25;;;;;;;;;;5039597;28;20064;-69
2022/03/09 14:31:12;;;;;;;18.10;12.15;;;;;;;;;;5035248;28;20243;-69
2022/03/09 14:33:41;;;;;;;19.75;14.13;;;;;;;;;;5036697;28;20592;-69
2022/03/09 14:36:08;;;;;;;17.60;13.38;;;;;;;;;;5038596;28;20061;-69
2022/03/09 14:38:40;;;;;;;18.08;13.70;;;;;;;;;;5032908;28;20369;-69
2022/03/09 14:41:07;;;;;;;20.02;14.40;;;;;;;;;;5037867;28;20060;-69
2022/03/09 14:43:34;;;;;;;19.30;12.73;;;;;;;;;;5028801;28;20103;-69